sensor_id;sensor_type;location;lat;lon;timestamp;temperature;humidity
76613;DHT22;65507;48.454;-2.058;2023-08-12T00:01:47;20.20;75.00
76613;DHT22;65507;48.454;-2.058;2023-08-12T00:04:13;20.20;74.90
76613;DHT22;65507;48.454;-2.058;2023-08-12T00:06:40;20.20;75.00
76613;DHT22;65507;48.454;-2.058;2023-08-12T00:09:06;20.10;74.90
76613;DHT22;65507;48.454;-2.058;2023-08-12T00:11:33;20.10;74.90
76613;DHT22;65507;48.454;-2.058;2023-08-12T00:13:59;20.10;74.90
76613;DHT22;65507;48.454;-2.058;2023-08-12T00:16:25;20.10;74.90
76613;DHT22;65507;48.454;-2.058;2023-08-12T00:18:50;20.10;75.00
76613;DHT22;65507;48.454;-2.058;2023-08-12T00:21:16;20.10;74.90
76613;DHT22;65507;48.454;-2.058;2023-08-12T00:23:41;20.10;74.90
76613;DHT22;65507;48.454;-2.058;2023-08-12T00:26:08;20.10;74.90
76613;DHT22;65507;48.454;-2.058;2023-08-12T00:28:34;20.10;75.00
76613;DHT22;65507;48.454;-2.058;2023-08-12T00:30:59;20.10;74.90
76613;DHT22;65507;48.454;-2.058;2023-08-12T00:33:25;20.10;75.00
76613;DHT22;65507;48.454;-2.058;2023-08-12T00:35:50;20.10;75.10
76613;DHT22;65507;48.454;-2.058;2023-08-12T00:38:16;20.10;75.00
76613;DHT22;65507;48.454;-2.058;2023-08-12T00:40:42;20.10;75.10
76613;DHT22;65507;48.454;-2.058;2023-08-12T00:43:07;20.00;75.10
76613;DHT22;65507;48.454;-2.058;2023-08-12T00:45:34;20.00;75.10
76613;DHT22;65507;48.454;-2.058;2023-08-12T00:48:00;20.00;75.10
76613;DHT22;65507;48.454;-2.058;2023-08-12T00:50:26;20.00;75.10
76613;DHT22;65507;48.454;-2.058;2023-08-12T00:52:51;19.90;75.20
76613;DHT22;65507;48.454;-2.058;2023-08-12T00:55:17;19.90;75.30
76613;DHT22;65507;48.454;-2.058;2023-08-12T00:57:43;19.90;75.30
76613;DHT22;65507;48.454;-2.058;2023-08-12T01:00:08;19.80;76.20
76613;DHT22;65507;48.454;-2.058;2023-08-12T01:02:34;19.80;76.40
76613;DHT22;65507;48.454;-2.058;2023-08-12T01:05:00;19.80;75.40
76613;DHT22;65507;48.454;-2.058;2023-08-12T01:07:25;19.80;75.50
76613;DHT22;65507;48.454;-2.058;2023-08-12T01:09:51;19.70;75.50
76613;DHT22;65507;48.454;-2.058;2023-08-12T01:12:18;19.70;75.60
76613;DHT22;65507;48.454;-2.058;2023-08-12T01:14:51;19.70;75.60
76613;DHT22;65507;48.454;-2.058;2023-08-12T01:17:18;19.60;75.60
76613;DHT22;65507;48.454;-2.058;2023-08-12T01:19:44;19.60;75.70
76613;DHT22;65507;48.454;-2.058;2023-08-12T01:22:12;19.50;75.80
76613;DHT22;65507;48.454;-2.058;2023-08-12T01:24:41;19.50;75.90
76613;DHT22;65507;48.454;-2.058;2023-08-12T01:27:07;19.40;75.80
76613;DHT22;65507;48.454;-2.058;2023-08-12T01:29:33;19.40;75.90
76613;DHT22;65507;48.454;-2.058;2023-08-12T01:37:03;19.40;75.90
76613;DHT22;65507;48.454;-2.058;2023-08-12T01:39:29;19.30;75.90
76613;DHT22;65507;48.454;-2.058;2023-08-12T01:41:56;19.30;76.00
76613;DHT22;65507;48.454;-2.058;2023-08-12T01:44:22;19.30;76.10
76613;DHT22;65507;48.454;-2.058;2023-08-12T01:46:47;19.30;76.10
76613;DHT22;65507;48.454;-2.058;2023-08-12T01:49:14;19.20;76.10
76613;DHT22;65507;48.454;-2.058;2023-08-12T01:51:39;19.20;76.20
76613;DHT22;65507;48.454;-2.058;2023-08-12T01:54:05;19.20;76.20
76613;DHT22;65507;48.454;-2.058;2023-08-12T01:56:30;19.10;76.10
76613;DHT22;65507;48.454;-2.058;2023-08-12T01:58:56;19.10;76.20
76613;DHT22;65507;48.454;-2.058;2023-08-12T02:01:21;19.10;76.20
76613;DHT22;65507;48.454;-2.058;2023-08-12T02:03:47;19.10;76.20
76613;DHT22;65507;48.454;-2.058;2023-08-12T02:06:12;19.10;76.40
76613;DHT22;65507;48.454;-2.058;2023-08-12T02:08:38;19.00;76.30
76613;DHT22;65507;48.454;-2.058;2023-08-12T02:11:03;19.00;76.30
76613;DHT22;65507;48.454;-2.058;2023-08-12T02:13:29;19.00;76.30
76613;DHT22;65507;48.454;-2.058;2023-08-12T02:15:55;18.90;76.30
76613;DHT22;65507;48.454;-2.058;2023-08-12T02:18:20;18.90;76.30
76613;DHT22;65507;48.454;-2.058;2023-08-12T02:20:48;18.90;76.30
76613;DHT22;65507;48.454;-2.058;2023-08-12T02:23:14;18.90;76.30
76613;DHT22;65507;48.454;-2.058;2023-08-12T02:25:39;18.90;76.30
76613;DHT22;65507;48.454;-2.058;2023-08-12T02:28:05;18.90;76.40
76613;DHT22;65507;48.454;-2.058;2023-08-12T02:30:31;18.90;76.40
76613;DHT22;65507;48.454;-2.058;2023-08-12T02:32:56;18.80;76.30
76613;DHT22;65507;48.454;-2.058;2023-08-12T02:35:22;18.80;76.30
76613;DHT22;65507;48.454;-2.058;2023-08-12T02:37:48;18.80;76.30
76613;DHT22;65507;48.454;-2.058;2023-08-12T02:40:13;18.80;76.30
76613;DHT22;65507;48.454;-2.058;2023-08-12T02:42:39;18.80;76.30
76613;DHT22;65507;48.454;-2.058;2023-08-12T02:45:05;18.80;76.30
76613;DHT22;65507;48.454;-2.058;2023-08-12T02:47:30;18.80;76.20
76613;DHT22;65507;48.454;-2.058;2023-08-12T02:49:56;18.80;76.30
76613;DHT22;65507;48.454;-2.058;2023-08-12T02:52:21;18.80;76.20
76613;DHT22;65507;48.454;-2.058;2023-08-12T02:54:47;18.80;76.30
76613;DHT22;65507;48.454;-2.058;2023-08-12T02:57:12;18.80;76.20
76613;DHT22;65507;48.454;-2.058;2023-08-12T02:59:38;18.80;76.30
76613;DHT22;65507;48.454;-2.058;2023-08-12T03:02:04;18.80;76.30
76613;DHT22;65507;48.454;-2.058;2023-08-12T03:04:29;18.80;76.20
76613;DHT22;65507;48.454;-2.058;2023-08-12T03:06:55;18.80;76.30
76613;DHT22;65507;48.454;-2.058;2023-08-12T03:09:20;18.80;76.40
76613;DHT22;65507;48.454;-2.058;2023-08-12T03:11:46;18.80;76.30
76613;DHT22;65507;48.454;-2.058;2023-08-12T03:14:12;18.80;76.50
76613;DHT22;65507;48.454;-2.058;2023-08-12T03:16:37;18.70;76.30
76613;DHT22;65507;48.454;-2.058;2023-08-12T03:19:08;18.70;76.20
76613;DHT22;65507;48.454;-2.058;2023-08-12T03:21:34;18.70;76.30
76613;DHT22;65507;48.454;-2.058;2023-08-12T03:23:59;18.70;76.40
76613;DHT22;65507;48.454;-2.058;2023-08-12T03:26:25;18.70;76.40
76613;DHT22;65507;48.454;-2.058;2023-08-12T03:28:51;18.70;76.50
76613;DHT22;65507;48.454;-2.058;2023-08-12T03:31:16;18.60;76.60
76613;DHT22;65507;48.454;-2.058;2023-08-12T03:33:42;18.60;76.50
76613;DHT22;65507;48.454;-2.058;2023-08-12T03:36:09;18.60;76.60
76613;DHT22;65507;48.454;-2.058;2023-08-12T03:38:34;18.50;76.60
76613;DHT22;65507;48.454;-2.058;2023-08-12T03:41:01;18.50;76.70
76613;DHT22;65507;48.454;-2.058;2023-08-12T03:43:27;18.50;76.70
76613;DHT22;65507;48.454;-2.058;2023-08-12T03:45:53;18.40;76.80
76613;DHT22;65507;48.454;-2.058;2023-08-12T03:48:18;18.40;76.80
76613;DHT22;65507;48.454;-2.058;2023-08-12T03:50:44;18.30;76.90
76613;DHT22;65507;48.454;-2.058;2023-08-12T03:53:12;18.30;77.00
76613;DHT22;65507;48.454;-2.058;2023-08-12T03:55:37;18.20;77.00
76613;DHT22;65507;48.454;-2.058;2023-08-12T03:58:06;18.20;77.10
76613;DHT22;65507;48.454;-2.058;2023-08-12T04:00:31;18.20;77.10
76613;DHT22;65507;48.454;-2.058;2023-08-12T04:02:57;18.20;77.20
76613;DHT22;65507;48.454;-2.058;2023-08-12T04:05:22;18.10;77.30
76613;DHT22;65507;48.454;-2.058;2023-08-12T04:07:48;18.10;77.30
76613;DHT22;65507;48.454;-2.058;2023-08-12T04:10:14;18.00;77.40
76613;DHT22;65507;48.454;-2.058;2023-08-12T04:12:40;18.00;77.40
76613;DHT22;65507;48.454;-2.058;2023-08-12T04:15:06;17.90;77.40
76613;DHT22;65507;48.454;-2.058;2023-08-12T04:17:32;17.90;77.40
76613;DHT22;65507;48.454;-2.058;2023-08-12T04:19:58;17.80;77.50
76613;DHT22;65507;48.454;-2.058;2023-08-12T04:22:23;17.80;77.50
76613;DHT22;65507;48.454;-2.058;2023-08-12T04:24:49;17.70;77.60
76613;DHT22;65507;48.454;-2.058;2023-08-12T04:27:14;17.70;77.70
76613;DHT22;65507;48.454;-2.058;2023-08-12T04:29:41;17.70;77.70
76613;DHT22;65507;48.454;-2.058;2023-08-12T04:32:07;17.60;77.70
76613;DHT22;65507;48.454;-2.058;2023-08-12T04:34:33;17.60;77.80
76613;DHT22;65507;48.454;-2.058;2023-08-12T04:36:58;17.50;77.80
76613;DHT22;65507;48.454;-2.058;2023-08-12T04:39:24;17.50;77.80
76613;DHT22;65507;48.454;-2.058;2023-08-12T04:41:50;17.50;77.80
76613;DHT22;65507;48.454;-2.058;2023-08-12T04:44:16;17.40;77.80
76613;DHT22;65507;48.454;-2.058;2023-08-12T04:46:41;17.40;77.80
76613;DHT22;65507;48.454;-2.058;2023-08-12T04:49:07;17.30;77.80
76613;DHT22;65507;48.454;-2.058;2023-08-12T04:51:33;17.30;78.00
76613;DHT22;65507;48.454;-2.058;2023-08-12T04:53:58;17.30;77.90
76613;DHT22;65507;48.454;-2.058;2023-08-12T04:56:26;17.20;78.00
76613;DHT22;65507;48.454;-2.058;2023-08-12T04:58:54;17.10;78.20
76613;DHT22;65507;48.454;-2.058;2023-08-12T05:01:20;17.10;78.10
76613;DHT22;65507;48.454;-2.058;2023-08-12T05:03:45;17.10;78.20
76613;DHT22;65507;48.454;-2.058;2023-08-12T05:06:11;17.10;78.20
76613;DHT22;65507;48.454;-2.058;2023-08-12T05:08:36;17.00;78.10
76613;DHT22;65507;48.454;-2.058;2023-08-12T05:11:02;17.00;78.10
76613;DHT22;65507;48.454;-2.058;2023-08-12T05:13:28;17.00;78.10
76613;DHT22;65507;48.454;-2.058;2023-08-12T05:15:54;16.90;78.10
76613;DHT22;65507;48.454;-2.058;2023-08-12T05:18:21;16.90;78.30
76613;DHT22;65507;48.454;-2.058;2023-08-12T05:20:49;16.90;78.10
76613;DHT22;65507;48.454;-2.058;2023-08-12T05:23:16;16.90;78.10
76613;DHT22;65507;48.454;-2.058;2023-08-12T05:25:41;17.50;78.50
76613;DHT22;65507;48.454;-2.058;2023-08-12T05:28:07;16.90;78.90
76613;DHT22;65507;48.454;-2.058;2023-08-12T05:30:33;16.90;78.00
76613;DHT22;65507;48.454;-2.058;2023-08-12T05:32:59;16.90;77.90
76613;DHT22;65507;48.454;-2.058;2023-08-12T05:35:24;16.90;77.70
76613;DHT22;65507;48.454;-2.058;2023-08-12T05:37:50;17.00;77.80
76613;DHT22;65507;48.454;-2.058;2023-08-12T05:40:15;17.00;77.70
76613;DHT22;65507;48.454;-2.058;2023-08-12T05:42:41;17.00;77.70
76613;DHT22;65507;48.454;-2.058;2023-08-12T05:45:06;17.00;77.70
76613;DHT22;65507;48.454;-2.058;2023-08-12T05:47:32;17.10;77.40
76613;DHT22;65507;48.454;-2.058;2023-08-12T05:49:58;17.10;77.20
76613;DHT22;65507;48.454;-2.058;2023-08-12T05:52:23;17.20;77.10
76613;DHT22;65507;48.454;-2.058;2023-08-12T05:54:49;17.30;76.90
76613;DHT22;65507;48.454;-2.058;2023-08-12T05:57:14;17.40;76.80
76613;DHT22;65507;48.454;-2.058;2023-08-12T05:59:40;17.40;76.70
76613;DHT22;65507;48.454;-2.058;2023-08-12T06:02:08;17.50;76.50
76613;DHT22;65507;48.454;-2.058;2023-08-12T06:04:34;17.50;76.40
76613;DHT22;65507;48.454;-2.058;2023-08-12T06:07:00;17.60;76.40
76613;DHT22;65507;48.454;-2.058;2023-08-12T06:09:26;17.70;76.30
76613;DHT22;65507;48.454;-2.058;2023-08-12T06:11:51;17.70;76.10
76613;DHT22;65507;48.454;-2.058;2023-08-12T06:14:17;17.80;76.10
76613;DHT22;65507;48.454;-2.058;2023-08-12T06:16:43;17.80;75.90
76613;DHT22;65507;48.454;-2.058;2023-08-12T06:19:08;17.90;75.90
76613;DHT22;65507;48.454;-2.058;2023-08-12T06:21:34;18.00;75.80
76613;DHT22;65507;48.454;-2.058;2023-08-12T06:23:59;18.10;75.60
76613;DHT22;65507;48.454;-2.058;2023-08-12T06:26:25;18.20;75.50
76613;DHT22;65507;48.454;-2.058;2023-08-12T06:28:50;18.20;75.40
76613;DHT22;65507;48.454;-2.058;2023-08-12T06:31:16;18.30;75.40
76613;DHT22;65507;48.454;-2.058;2023-08-12T06:33:41;18.30;75.50
76613;DHT22;65507;48.454;-2.058;2023-08-12T06:36:07;18.40;75.40
76613;DHT22;65507;48.454;-2.058;2023-08-12T06:38:33;18.50;75.50
76613;DHT22;65507;48.454;-2.058;2023-08-12T06:40:58;18.50;75.50
76613;DHT22;65507;48.454;-2.058;2023-08-12T06:43:24;18.60;75.50
76613;DHT22;65507;48.454;-2.058;2023-08-12T06:45:49;18.60;75.20
76613;DHT22;65507;48.454;-2.058;2023-08-12T06:48:15;18.70;75.40
76613;DHT22;65507;48.454;-2.058;2023-08-12T06:50:40;18.70;75.30
76613;DHT22;65507;48.454;-2.058;2023-08-12T06:53:06;18.70;75.20
76613;DHT22;65507;48.454;-2.058;2023-08-12T06:55:32;18.80;75.30
76613;DHT22;65507;48.454;-2.058;2023-08-12T06:57:58;18.80;75.30
76613;DHT22;65507;48.454;-2.058;2023-08-12T07:00:23;18.90;75.30
76613;DHT22;65507;48.454;-2.058;2023-08-12T07:02:49;18.90;75.30
76613;DHT22;65507;48.454;-2.058;2023-08-12T07:05:14;18.90;75.30
76613;DHT22;65507;48.454;-2.058;2023-08-12T07:07:40;18.90;75.30
76613;DHT22;65507;48.454;-2.058;2023-08-12T07:10:05;18.90;75.40
76613;DHT22;65507;48.454;-2.058;2023-08-12T07:12:31;18.90;75.20
76613;DHT22;65507;48.454;-2.058;2023-08-12T07:14:58;19.00;75.20
76613;DHT22;65507;48.454;-2.058;2023-08-12T07:17:23;19.00;75.20
76613;DHT22;65507;48.454;-2.058;2023-08-12T07:19:49;19.00;75.20
76613;DHT22;65507;48.454;-2.058;2023-08-12T07:22:14;19.10;75.20
76613;DHT22;65507;48.454;-2.058;2023-08-12T07:24:43;19.20;75.20
76613;DHT22;65507;48.454;-2.058;2023-08-12T07:27:09;19.20;75.10
76613;DHT22;65507;48.454;-2.058;2023-08-12T07:29:34;19.20;75.00
76613;DHT22;65507;48.454;-2.058;2023-08-12T07:32:00;19.30;75.00
76613;DHT22;65507;48.454;-2.058;2023-08-12T07:34:25;19.30;75.20
76613;DHT22;65507;48.454;-2.058;2023-08-12T07:36:51;19.40;75.00
76613;DHT22;65507;48.454;-2.058;2023-08-12T07:39:19;19.40;74.90
76613;DHT22;65507;48.454;-2.058;2023-08-12T07:41:45;19.50;74.70
76613;DHT22;65507;48.454;-2.058;2023-08-12T07:44:11;19.60;74.70
76613;DHT22;65507;48.454;-2.058;2023-08-12T07:46:36;19.60;74.50
76613;DHT22;65507;48.454;-2.058;2023-08-12T07:49:02;19.70;74.50
76613;DHT22;65507;48.454;-2.058;2023-08-12T07:51:27;19.70;74.40
76613;DHT22;65507;48.454;-2.058;2023-08-12T07:53:53;19.80;74.30
76613;DHT22;65507;48.454;-2.058;2023-08-12T07:56:18;19.80;74.30
76613;DHT22;65507;48.454;-2.058;2023-08-12T07:58:44;19.90;74.40
76613;DHT22;65507;48.454;-2.058;2023-08-12T08:01:11;20.00;74.50
76613;DHT22;65507;48.454;-2.058;2023-08-12T08:03:36;20.00;74.20
76613;DHT22;65507;48.454;-2.058;2023-08-12T08:06:02;20.10;74.20
76613;DHT22;65507;48.454;-2.058;2023-08-12T08:08:28;20.20;74.10
76613;DHT22;65507;48.454;-2.058;2023-08-12T08:10:53;20.20;73.90
76613;DHT22;65507;48.454;-2.058;2023-08-12T08:13:19;20.30;73.70
76613;DHT22;65507;48.454;-2.058;2023-08-12T08:15:45;20.30;73.70
76613;DHT22;65507;48.454;-2.058;2023-08-12T08:18:11;20.40;73.50
76613;DHT22;65507;48.454;-2.058;2023-08-12T08:20:36;20.40;73.80
76613;DHT22;65507;48.454;-2.058;2023-08-12T08:23:02;20.50;73.60
76613;DHT22;65507;48.454;-2.058;2023-08-12T08:25:27;20.60;73.40
76613;DHT22;65507;48.454;-2.058;2023-08-12T08:27:53;20.60;73.40
76613;DHT22;65507;48.454;-2.058;2023-08-12T08:30:18;20.70;73.20
76613;DHT22;65507;48.454;-2.058;2023-08-12T08:32:44;20.90;72.90
76613;DHT22;65507;48.454;-2.058;2023-08-12T08:35:11;21.00;72.80
76613;DHT22;65507;48.454;-2.058;2023-08-12T08:37:37;21.10;72.50
76613;DHT22;65507;48.454;-2.058;2023-08-12T08:40:03;21.20;72.40
76613;DHT22;65507;48.454;-2.058;2023-08-12T08:42:28;21.30;72.30
76613;DHT22;65507;48.454;-2.058;2023-08-12T08:44:54;21.30;72.30
76613;DHT22;65507;48.454;-2.058;2023-08-12T08:47:25;21.30;72.40
76613;DHT22;65507;48.454;-2.058;2023-08-12T08:49:51;21.30;72.50
76613;DHT22;65507;48.454;-2.058;2023-08-12T08:52:17;21.40;72.60
76613;DHT22;65507;48.454;-2.058;2023-08-12T08:54:43;21.40;72.50
76613;DHT22;65507;48.454;-2.058;2023-08-12T08:57:08;21.50;72.60
76613;DHT22;65507;48.454;-2.058;2023-08-12T08:59:34;21.50;72.60
76613;DHT22;65507;48.454;-2.058;2023-08-12T09:01:59;21.50;72.50
76613;DHT22;65507;48.454;-2.058;2023-08-12T09:04:25;21.60;72.40
76613;DHT22;65507;48.454;-2.058;2023-08-12T09:06:52;21.70;72.20
76613;DHT22;65507;48.454;-2.058;2023-08-12T09:09:19;21.80;72.00
76613;DHT22;65507;48.454;-2.058;2023-08-12T09:11:45;21.90;71.80
76613;DHT22;65507;48.454;-2.058;2023-08-12T09:14:11;22.00;71.60
76613;DHT22;65507;48.454;-2.058;2023-08-12T09:16:36;21.80;72.00
76613;DHT22;65507;48.454;-2.058;2023-08-12T09:19:02;21.80;72.20
76613;DHT22;65507;48.454;-2.058;2023-08-12T09:21:28;21.90;72.00
76613;DHT22;65507;48.454;-2.058;2023-08-12T09:23:53;21.90;71.90
76613;DHT22;65507;48.454;-2.058;2023-08-12T09:26:20;22.10;71.70
76613;DHT22;65507;48.454;-2.058;2023-08-12T09:28:46;22.20;71.40
76613;DHT22;65507;48.454;-2.058;2023-08-12T09:31:32;22.30;71.20
76613;DHT22;65507;48.454;-2.058;2023-08-12T09:33:58;22.50;71.10
76613;DHT22;65507;48.454;-2.058;2023-08-12T09:36:27;22.60;70.90
76613;DHT22;65507;48.454;-2.058;2023-08-12T09:38:52;22.70;70.60
76613;DHT22;65507;48.454;-2.058;2023-08-12T09:41:18;22.80;71.40
76613;DHT22;65507;48.454;-2.058;2023-08-12T09:43:44;22.90;70.40
76613;DHT22;65507;48.454;-2.058;2023-08-12T09:46:12;23.00;70.30
76613;DHT22;65507;48.454;-2.058;2023-08-12T09:48:39;23.00;70.40
76613;DHT22;65507;48.454;-2.058;2023-08-12T09:51:05;23.10;70.30
76613;DHT22;65507;48.454;-2.058;2023-08-12T09:53:31;23.20;70.20
76613;DHT22;65507;48.454;-2.058;2023-08-12T09:55:57;23.10;70.30
76613;DHT22;65507;48.454;-2.058;2023-08-12T09:58:29;23.00;70.60
76613;DHT22;65507;48.454;-2.058;2023-08-12T10:00:56;22.90;70.90
76613;DHT22;65507;48.454;-2.058;2023-08-12T10:03:21;22.90;71.00
76613;DHT22;65507;48.454;-2.058;2023-08-12T10:05:47;22.90;71.00
76613;DHT22;65507;48.454;-2.058;2023-08-12T10:08:14;23.00;70.90
76613;DHT22;65507;48.454;-2.058;2023-08-12T10:10:39;23.10;70.90
76613;DHT22;65507;48.454;-2.058;2023-08-12T10:13:05;23.20;70.70
76613;DHT22;65507;48.454;-2.058;2023-08-12T10:15:33;23.30;70.30
76613;DHT22;65507;48.454;-2.058;2023-08-12T10:17:59;23.50;70.00
76613;DHT22;65507;48.454;-2.058;2023-08-12T10:20:24;23.60;69.90
76613;DHT22;65507;48.454;-2.058;2023-08-12T10:22:52;23.70;69.50
76613;DHT22;65507;48.454;-2.058;2023-08-12T10:25:19;23.80;69.20
76613;DHT22;65507;48.454;-2.058;2023-08-12T10:27:47;24.00;68.90
76613;DHT22;65507;48.454;-2.058;2023-08-12T10:30:13;24.20;68.70
76613;DHT22;65507;48.454;-2.058;2023-08-12T10:32:39;24.40;68.40
76613;DHT22;65507;48.454;-2.058;2023-08-12T10:35:05;24.60;68.10
76613;DHT22;65507;48.454;-2.058;2023-08-12T10:37:31;24.80;67.90
76613;DHT22;65507;48.454;-2.058;2023-08-12T10:39:57;24.90;67.70
76613;DHT22;65507;48.454;-2.058;2023-08-12T10:42:41;25.10;67.40
76613;DHT22;65507;48.454;-2.058;2023-08-12T10:45:07;25.10;67.50
76613;DHT22;65507;48.454;-2.058;2023-08-12T10:47:37;25.20;67.60
76613;DHT22;65507;48.454;-2.058;2023-08-12T10:50:02;25.20;67.40
76613;DHT22;65507;48.454;-2.058;2023-08-12T10:52:28;25.30;67.50
76613;DHT22;65507;48.454;-2.058;2023-08-12T10:54:54;25.40;67.50
76613;DHT22;65507;48.454;-2.058;2023-08-12T10:57:34;25.40;67.70
76613;DHT22;65507;48.454;-2.058;2023-08-12T11:00:00;25.30;67.80
76613;DHT22;65507;48.454;-2.058;2023-08-12T11:04:59;25.20;68.20
76613;DHT22;65507;48.454;-2.058;2023-08-12T11:07:31;25.10;68.30
76613;DHT22;65507;48.454;-2.058;2023-08-12T11:10:04;25.00;68.40
76613;DHT22;65507;48.454;-2.058;2023-08-12T11:12:33;24.90;68.90
76613;DHT22;65507;48.454;-2.058;2023-08-12T11:14:59;24.80;69.10
76613;DHT22;65507;48.454;-2.058;2023-08-12T11:19:56;24.70;69.00
76613;DHT22;65507;48.454;-2.058;2023-08-12T11:22:22;24.80;68.90
76613;DHT22;65507;48.454;-2.058;2023-08-12T11:24:48;24.90;68.50
76613;DHT22;65507;48.454;-2.058;2023-08-12T11:27:13;25.00;68.20
76613;DHT22;65507;48.454;-2.058;2023-08-12T11:29:39;25.00;68.30
76613;DHT22;65507;48.454;-2.058;2023-08-12T11:32:05;24.80;68.40
76613;DHT22;65507;48.454;-2.058;2023-08-12T11:34:31;24.80;68.70
76613;DHT22;65507;48.454;-2.058;2023-08-12T11:36:57;24.70;68.70
76613;DHT22;65507;48.454;-2.058;2023-08-12T11:39:22;24.60;68.80
76613;DHT22;65507;48.454;-2.058;2023-08-12T11:41:48;24.60;69.00
76613;DHT22;65507;48.454;-2.058;2023-08-12T11:44:15;24.50;69.00
76613;DHT22;65507;48.454;-2.058;2023-08-12T11:46:42;24.60;69.00
76613;DHT22;65507;48.454;-2.058;2023-08-12T11:49:07;24.70;68.80
76613;DHT22;65507;48.454;-2.058;2023-08-12T11:51:33;24.70;68.70
76613;DHT22;65507;48.454;-2.058;2023-08-12T11:53:59;24.80;68.50
76613;DHT22;65507;48.454;-2.058;2023-08-12T11:56:25;24.80;68.30
76613;DHT22;65507;48.454;-2.058;2023-08-12T11:58:51;24.90;68.50
76613;DHT22;65507;48.454;-2.058;2023-08-12T12:01:20;24.90;68.50
76613;DHT22;65507;48.454;-2.058;2023-08-12T12:03:50;24.90;68.40
76613;DHT22;65507;48.454;-2.058;2023-08-12T12:06:15;25.00;68.20
76613;DHT22;65507;48.454;-2.058;2023-08-12T12:08:44;25.10;68.00
76613;DHT22;65507;48.454;-2.058;2023-08-12T12:11:09;25.10;67.90
76613;DHT22;65507;48.454;-2.058;2023-08-12T12:13:35;25.10;68.00
76613;DHT22;65507;48.454;-2.058;2023-08-12T12:16:01;25.00;68.20
76613;DHT22;65507;48.454;-2.058;2023-08-12T12:18:26;24.90;68.20
76613;DHT22;65507;48.454;-2.058;2023-08-12T12:20:56;24.80;68.60
76613;DHT22;65507;48.454;-2.058;2023-08-12T12:23:21;24.80;68.60
76613;DHT22;65507;48.454;-2.058;2023-08-12T12:25:47;24.80;68.70
76613;DHT22;65507;48.454;-2.058;2023-08-12T12:28:13;24.70;68.70
76613;DHT22;65507;48.454;-2.058;2023-08-12T12:30:38;24.60;68.80
76613;DHT22;65507;48.454;-2.058;2023-08-12T12:33:04;24.50;69.00
76613;DHT22;65507;48.454;-2.058;2023-08-12T12:35:30;24.50;69.10
76613;DHT22;65507;48.454;-2.058;2023-08-12T12:37:56;24.40;69.00
76613;DHT22;65507;48.454;-2.058;2023-08-12T12:40:21;24.40;69.10
76613;DHT22;65507;48.454;-2.058;2023-08-12T12:42:47;24.50;68.80
76613;DHT22;65507;48.454;-2.058;2023-08-12T12:45:12;24.50;68.80
76613;DHT22;65507;48.454;-2.058;2023-08-12T12:47:38;24.50;68.80
76613;DHT22;65507;48.454;-2.058;2023-08-12T12:50:04;24.50;68.70
76613;DHT22;65507;48.454;-2.058;2023-08-12T12:52:29;24.60;68.50
76613;DHT22;65507;48.454;-2.058;2023-08-12T12:54:55;24.60;68.40
76613;DHT22;65507;48.454;-2.058;2023-08-12T12:57:22;24.60;68.10
76613;DHT22;65507;48.454;-2.058;2023-08-12T12:59:48;24.60;68.30
76613;DHT22;65507;48.454;-2.058;2023-08-12T13:02:14;24.50;68.40
76613;DHT22;65507;48.454;-2.058;2023-08-12T13:04:39;24.50;68.40
76613;DHT22;65507;48.454;-2.058;2023-08-12T13:07:05;24.50;68.50
76613;DHT22;65507;48.454;-2.058;2023-08-12T13:09:30;24.40;68.50
76613;DHT22;65507;48.454;-2.058;2023-08-12T13:11:56;24.40;68.60
76613;DHT22;65507;48.454;-2.058;2023-08-12T13:14:22;24.40;68.60
76613;DHT22;65507;48.454;-2.058;2023-08-12T13:16:48;24.40;68.50
76613;DHT22;65507;48.454;-2.058;2023-08-12T13:19:13;24.40;68.50
76613;DHT22;65507;48.454;-2.058;2023-08-12T13:21:39;24.40;69.30
76613;DHT22;65507;48.454;-2.058;2023-08-12T13:24:05;24.40;68.40
76613;DHT22;65507;48.454;-2.058;2023-08-12T13:26:30;24.40;68.50
76613;DHT22;65507;48.454;-2.058;2023-08-12T13:28:56;24.40;68.70
76613;DHT22;65507;48.454;-2.058;2023-08-12T13:31:21;24.40;68.30
76613;DHT22;65507;48.454;-2.058;2023-08-12T13:33:47;24.40;68.30
76613;DHT22;65507;48.454;-2.058;2023-08-12T13:36:13;24.50;68.20
76613;DHT22;65507;48.454;-2.058;2023-08-12T13:38:38;24.50;68.00
76613;DHT22;65507;48.454;-2.058;2023-08-12T13:41:04;24.60;67.80
76613;DHT22;65507;48.454;-2.058;2023-08-12T13:43:29;24.70;67.70
76613;DHT22;65507;48.454;-2.058;2023-08-12T13:45:55;24.80;67.60
76613;DHT22;65507;48.454;-2.058;2023-08-12T13:48:21;24.80;67.40
76613;DHT22;65507;48.454;-2.058;2023-08-12T13:50:46;24.80;67.40
76613;DHT22;65507;48.454;-2.058;2023-08-12T13:53:15;24.80;67.50
76613;DHT22;65507;48.454;-2.058;2023-08-12T13:55:40;24.80;67.60
76613;DHT22;65507;48.454;-2.058;2023-08-12T13:58:06;24.80;67.40
76613;DHT22;65507;48.454;-2.058;2023-08-12T14:00:31;24.90;67.50
76613;DHT22;65507;48.454;-2.058;2023-08-12T14:02:57;24.90;67.30
76613;DHT22;65507;48.454;-2.058;2023-08-12T14:05:23;25.00;67.10
76613;DHT22;65507;48.454;-2.058;2023-08-12T14:07:49;25.00;67.10
76613;DHT22;65507;48.454;-2.058;2023-08-12T14:10:14;25.00;67.20
76613;DHT22;65507;48.454;-2.058;2023-08-12T14:12:40;24.90;67.30
76613;DHT22;65507;48.454;-2.058;2023-08-12T14:15:06;24.90;67.60
76613;DHT22;65507;48.454;-2.058;2023-08-12T14:17:31;24.80;67.80
76613;DHT22;65507;48.454;-2.058;2023-08-12T14:19:57;24.70;67.90
76613;DHT22;65507;48.454;-2.058;2023-08-12T14:22:25;24.60;68.00
76613;DHT22;65507;48.454;-2.058;2023-08-12T14:24:50;24.60;68.20
76613;DHT22;65507;48.454;-2.058;2023-08-12T14:27:16;24.50;68.30
76613;DHT22;65507;48.454;-2.058;2023-08-12T14:29:43;24.40;68.40
76613;DHT22;65507;48.454;-2.058;2023-08-12T14:32:09;24.30;68.50
76613;DHT22;65507;48.454;-2.058;2023-08-12T14:34:35;24.20;68.70
76613;DHT22;65507;48.454;-2.058;2023-08-12T14:37:04;24.20;68.70
76613;DHT22;65507;48.454;-2.058;2023-08-12T14:39:29;24.10;68.50
76613;DHT22;65507;48.454;-2.058;2023-08-12T14:41:55;24.10;68.60
76613;DHT22;65507;48.454;-2.058;2023-08-12T14:44:20;24.20;68.30
76613;DHT22;65507;48.454;-2.058;2023-08-12T14:46:46;24.40;68.00
76613;DHT22;65507;48.454;-2.058;2023-08-12T14:49:12;24.50;67.40
76613;DHT22;65507;48.454;-2.058;2023-08-12T14:51:37;24.00;67.40
76613;DHT22;65507;48.454;-2.058;2023-08-12T14:54:03;24.70;66.90
76613;DHT22;65507;48.454;-2.058;2023-08-12T14:56:28;24.80;66.70
76613;DHT22;65507;48.454;-2.058;2023-08-12T14:58:54;24.90;66.50
76613;DHT22;65507;48.454;-2.058;2023-08-12T15:01:19;24.90;68.00
76613;DHT22;65507;48.454;-2.058;2023-08-12T15:03:46;25.00;66.40
76613;DHT22;65507;48.454;-2.058;2023-08-12T15:06:12;25.00;66.40
76613;DHT22;65507;48.454;-2.058;2023-08-12T15:08:38;24.90;66.60
76613;DHT22;65507;48.454;-2.058;2023-08-12T15:11:04;24.90;66.70
76613;DHT22;65507;48.454;-2.058;2023-08-12T15:13:29;24.80;66.70
76613;DHT22;65507;48.454;-2.058;2023-08-12T15:15:55;24.80;67.00
76613;DHT22;65507;48.454;-2.058;2023-08-12T15:18:21;23.00;66.00